createdAt,value
2022-10-11T00:00:11.532Z,100.00
2022-10-11T00:02:43.930Z,100.00
2022-10-11T00:05:16.772Z,100.00
2022-10-11T00:07:49.189Z,100.00
2022-10-11T00:10:22.142Z,100.00
2022-10-11T00:12:54.438Z,100.00
2022-10-11T00:15:26.962Z,100.00
2022-10-11T00:18:04.504Z,100.00
2022-10-11T00:20:37.589Z,100.00
2022-10-11T00:23:09.927Z,100.00
2022-10-11T00:25:42.433Z,100.00
2022-10-11T00:28:14.828Z,100.00
2022-10-11T00:30:47.323Z,100.00
2022-10-11T00:33:19.600Z,100.00
2022-10-11T00:35:52.127Z,100.00
2022-10-11T00:38:24.406Z,100.00
2022-10-11T00:40:59.413Z,100.00
2022-10-11T00:43:32.277Z,100.00
2022-10-11T00:46:05.160Z,100.00
2022-10-11T00:48:40.126Z,100.00
2022-10-11T00:51:21.435Z,100.00
2022-10-11T00:53:54.114Z,100.00
2022-10-11T00:56:31.043Z,100.00
2022-10-11T00:59:06.038Z,100.00
2022-10-11T01:01:38.548Z,100.00
2022-10-11T01:04:10.866Z,100.00
2022-10-11T01:06:43.831Z,100.00
2022-10-11T01:09:16.446Z,100.00
2022-10-11T01:11:51.825Z,100.00
2022-10-11T01:14:42.854Z,100.00
2022-10-11T01:17:18.846Z,100.00
2022-10-11T01:19:51.288Z,100.00
2022-10-11T01:22:42.158Z,100.00
2022-10-11T01:25:26.986Z,100.00
2022-10-11T01:28:02.029Z,100.00
2022-10-11T01:30:37.638Z,100.00
2022-10-11T01:33:11.078Z,100.00
2022-10-11T01:35:43.322Z,100.00
2022-10-11T01:38:22.017Z,100.00
2022-10-11T01:41:00.172Z,100.00
2022-10-11T01:43:33.460Z,100.00
2022-10-11T01:46:07.494Z,100.00
2022-10-11T01:48:47.908Z,100.00
2022-10-11T01:51:22.831Z,100.00
2022-10-11T01:54:04.351Z,100.00
2022-10-11T01:56:51.954Z,100.00
2022-10-11T01:59:32.240Z,100.00
2022-10-11T02:02:31.644Z,100.00
2022-10-11T02:05:03.905Z,100.00
2022-10-11T02:07:43.181Z,100.00
2022-10-11T02:10:30.058Z,100.00
2022-10-11T02:13:05.105Z,100.00
2022-10-11T02:15:39.937Z,100.00
2022-10-11T02:18:15.486Z,100.00
2022-10-11T02:20:48.915Z,100.00
2022-10-11T02:23:25.357Z,100.00
2022-10-11T02:25:57.667Z,100.00
2022-10-11T02:28:31.662Z,100.00
2022-10-11T02:31:05.991Z,100.00
2022-10-11T02:33:58.558Z,100.00
2022-10-11T02:36:37.581Z,100.00
2022-10-11T02:39:20.153Z,100.00
2022-10-11T02:41:54.829Z,100.00
2022-10-11T02:44:32.231Z,100.00
2022-10-11T02:47:05.387Z,100.00
2022-10-11T02:49:38.104Z,100.00
2022-10-11T02:52:10.353Z,100.00
2022-10-11T02:54:42.621Z,100.00
2022-10-11T02:57:14.904Z,100.00
2022-10-11T02:59:47.160Z,100.00
2022-10-11T03:02:19.643Z,100.00
2022-10-11T03:04:51.915Z,100.00
2022-10-11T03:07:24.196Z,100.00
2022-10-11T03:09:56.479Z,100.00
2022-10-11T03:12:28.750Z,100.00
2022-10-11T03:15:03.139Z,100.00
2022-10-11T03:17:36.901Z,100.00
2022-10-11T03:20:09.865Z,100.00
2022-10-11T03:22:42.325Z,100.00
2022-10-11T03:25:14.827Z,100.00
2022-10-11T03:27:47.107Z,100.00
2022-10-11T03:30:22.384Z,100.00
2022-10-11T03:32:54.781Z,100.00
2022-10-11T03:35:27.064Z,100.00
2022-10-11T03:37:59.383Z,100.00
2022-10-11T03:40:31.922Z,100.00
2022-10-11T03:43:04.245Z,100.00
2022-10-11T03:45:36.582Z,100.00
2022-10-11T03:48:09.047Z,100.00
2022-10-11T03:50:41.446Z,100.00
2022-10-11T03:53:13.728Z,100.00
2022-10-11T03:55:46.011Z,100.00
2022-10-11T03:58:18.299Z,100.00
2022-10-11T04:00:51.972Z,100.00
2022-10-11T04:03:24.263Z,100.00
2022-10-11T04:05:56.579Z,100.00
2022-10-11T04:08:28.938Z,100.00
2022-10-11T04:11:01.221Z,100.00
2022-10-11T04:13:33.473Z,100.00
2022-10-11T04:16:06.460Z,100.00
2022-10-11T04:18:39.022Z,100.00
2022-10-11T04:21:11.259Z,100.00
2022-10-11T04:23:43.542Z,100.00
2022-10-11T04:26:15.818Z,100.00
2022-10-11T04:28:48.206Z,100.00
2022-10-11T04:31:23.844Z,100.00
2022-10-11T04:34:03.745Z,100.00
2022-10-11T04:36:36.421Z,100.00
2022-10-11T04:39:08.798Z,100.00
2022-10-11T04:41:41.069Z,100.00
2022-10-11T04:44:13.369Z,100.00
2022-10-11T04:46:45.619Z,100.00
2022-10-11T04:49:17.937Z,100.00
2022-10-11T04:51:50.554Z,100.00
2022-10-11T04:54:22.836Z,100.00
2022-10-11T04:56:55.170Z,100.00
2022-10-11T04:59:27.437Z,100.00
2022-10-11T05:01:59.863Z,100.00
2022-10-11T05:04:32.147Z,100.00
2022-10-11T05:07:04.487Z,100.00
2022-10-11T05:09:36.854Z,100.00
2022-10-11T05:12:09.134Z,100.00
2022-10-11T05:14:41.396Z,100.00
2022-10-11T05:17:13.711Z,100.00
2022-10-11T05:19:45.987Z,100.00
2022-10-11T05:22:18.297Z,100.00
2022-10-11T05:24:50.579Z,100.00
2022-10-11T05:27:22.864Z,100.00
2022-10-11T05:29:55.120Z,100.00
2022-10-11T05:32:28.166Z,100.00
2022-10-11T05:35:02.877Z,100.00
2022-10-11T05:37:35.146Z,100.00
2022-10-11T05:40:07.740Z,100.00
2022-10-11T05:42:40.024Z,100.00
2022-10-11T05:45:12.287Z,100.00
2022-10-11T05:47:44.674Z,100.00
2022-10-11T05:50:19.715Z,100.00
2022-10-11T05:52:55.696Z,100.00
2022-10-11T05:55:30.410Z,100.00
2022-10-11T05:58:02.706Z,100.00
2022-10-11T06:00:38.456Z,100.00
2022-10-11T06:03:11.689Z,100.00
2022-10-11T06:05:44.162Z,100.00
2022-10-11T06:08:17.259Z,100.00
2022-10-11T06:10:49.569Z,100.00
2022-10-11T06:13:21.845Z,100.00
2022-10-11T06:15:54.114Z,100.00
2022-10-11T06:18:26.389Z,100.00
2022-10-11T06:20:59.171Z,100.00
2022-10-11T06:23:31.462Z,100.00
2022-10-11T06:26:07.050Z,100.00
2022-10-11T06:28:39.739Z,100.00
2022-10-11T06:31:12.253Z,100.00
2022-10-11T06:33:44.584Z,100.00
2022-10-11T06:36:17.054Z,100.00
2022-10-11T06:38:51.478Z,100.00
2022-10-11T06:41:25.232Z,100.00
2022-10-11T06:43:57.502Z,100.00
2022-10-11T06:46:31.155Z,100.00
2022-10-11T06:49:03.489Z,100.00
2022-10-11T06:51:35.854Z,100.00
2022-10-11T06:54:08.120Z,100.00
2022-10-11T06:56:40.897Z,100.00
2022-10-11T06:59:13.421Z,100.00
2022-10-11T07:01:45.822Z,100.00
2022-10-11T07:04:18.081Z,100.00
2022-10-11T07:06:50.373Z,100.00
2022-10-11T07:09:22.736Z,100.00
2022-10-11T07:11:55.023Z,100.00
2022-10-11T07:14:27.274Z,100.00
2022-10-11T07:16:59.540Z,100.00
2022-10-11T07:19:31.810Z,100.00
2022-10-11T07:22:04.517Z,100.00
2022-10-11T07:24:36.803Z,100.00
2022-10-11T07:27:09.059Z,100.00
2022-10-11T07:29:41.417Z,100.00
2022-10-11T07:32:13.721Z,100.00
2022-10-11T07:34:46.003Z,100.00
2022-10-11T07:37:18.273Z,100.00
2022-10-11T07:39:50.525Z,100.00
2022-10-11T07:42:22.820Z,100.00
2022-10-11T07:44:55.195Z,100.00
2022-10-11T07:47:27.477Z,100.00
2022-10-11T07:49:59.899Z,100.00
2022-10-11T07:52:32.178Z,100.00
2022-10-11T07:55:04.741Z,100.00
2022-10-11T07:57:37.084Z,100.00
2022-10-11T08:00:09.627Z,100.00
2022-10-11T08:02:42.076Z,100.00
2022-10-11T08:05:14.538Z,100.00
2022-10-11T08:07:48.706Z,100.00
2022-10-11T08:10:20.984Z,100.00
2022-10-11T08:12:58.598Z,100.00
2022-10-11T08:15:34.374Z,100.00
2022-10-11T08:18:06.640Z,100.00
2022-10-11T08:20:39.559Z,100.00
2022-10-11T08:23:12.112Z,100.00
2022-10-11T08:25:46.566Z,100.00
2022-10-11T08:28:19.153Z,100.00
2022-10-11T08:30:52.844Z,100.00
2022-10-11T08:33:26.005Z,100.00
2022-10-11T08:35:58.927Z,100.00
2022-10-11T08:38:31.510Z,100.00
2022-10-11T08:41:14.583Z,100.00
2022-10-11T08:43:54.010Z,100.00
2022-10-11T08:46:28.893Z,100.00
2022-10-11T08:49:01.875Z,100.00
2022-10-11T08:51:36.401Z,100.00
2022-10-11T08:54:21.920Z,100.00
2022-10-11T08:56:54.309Z,100.00
2022-10-11T08:59:30.194Z,100.00
2022-10-11T09:02:16.466Z,98.19
2022-10-11T09:04:50.776Z,90.08
2022-10-11T09:07:23.094Z,81.34
2022-10-11T09:09:56.000Z,95.98
2022-10-11T09:12:51.622Z,97.95
2022-10-11T09:15:39.270Z,100.00
2022-10-11T09:18:30.508Z,96.91
2022-10-11T09:21:15.007Z,100.00
2022-10-11T09:23:56.574Z,92.75
2022-10-11T09:26:32.947Z,64.83
2022-10-11T09:29:05.375Z,80.14
2022-10-11T09:31:37.823Z,88.86
2022-10-11T09:34:11.733Z,88.05
2022-10-11T09:36:54.132Z,87.99
2022-10-11T09:39:29.602Z,88.77
2022-10-11T09:42:03.379Z,52.60
2022-10-11T09:44:38.030Z,51.48
2022-10-11T09:47:14.599Z,51.89
2022-10-11T09:50:06.695Z,50.75
2022-10-11T09:52:47.647Z,63.39
2022-10-11T09:55:32.373Z,52.94
2022-10-11T09:58:05.347Z,51.17
2022-10-11T10:00:38.843Z,46.77
2022-10-11T10:03:27.100Z,58.34
2022-10-11T10:06:22.997Z,57.84
2022-10-11T10:09:03.257Z,62.56
2022-10-11T10:11:36.467Z,53.87
2022-10-11T10:14:18.175Z,61.63
2022-10-11T10:16:59.793Z,42.99
2022-10-11T10:19:44.753Z,41.06
2022-10-11T10:22:19.665Z,51.59
2022-10-11T10:24:52.154Z,41.69
2022-10-11T10:27:25.932Z,50.04
2022-10-11T10:30:03.453Z,53.19
2022-10-11T10:32:43.765Z,44.30
2022-10-11T10:35:24.497Z,46.65
2022-10-11T10:38:15.458Z,51.81
2022-10-11T10:40:52.155Z,47.32
2022-10-11T10:43:34.756Z,54.74
2022-10-11T10:46:07.389Z,39.48
2022-10-11T10:49:23.232Z,37.11
2022-10-11T10:51:38.208Z,39.18
2022-10-11T10:54:10.460Z,45.51
2022-10-11T10:57:03.011Z,41.69
2022-10-11T10:59:35.276Z,36.82
2022-10-11T11:02:39.242Z,40.35
2022-10-11T11:05:20.462Z,39.32
2022-10-11T11:08:06.134Z,43.69
2022-10-11T11:10:57.370Z,46.58
2022-10-11T11:13:33.889Z,46.49
2022-10-11T11:16:15.088Z,40.95
2022-10-11T11:18:47.329Z,47.71
2022-10-11T11:21:25.012Z,42.16
2022-10-11T11:24:16.120Z,37.85
2022-10-11T11:27:06.935Z,39.88
2022-10-11T11:30:14.820Z,33.43
2022-10-11T11:32:47.109Z,35.47
2022-10-11T11:35:37.379Z,38.79
2022-10-11T11:38:16.093Z,40.61
2022-10-11T11:40:54.551Z,38.78
2022-10-11T11:43:32.660Z,35.58
2022-10-11T11:46:09.553Z,36.32
2022-10-11T11:48:43.408Z,36.52
2022-10-11T11:51:18.785Z,38.36
2022-10-11T11:53:56.461Z,37.92
2022-10-11T11:56:43.986Z,39.82
2022-10-11T11:59:23.575Z,40.38
2022-10-11T12:02:15.910Z,36.49
2022-10-11T12:04:49.340Z,32.34
2022-10-11T12:07:23.388Z,36.25
2022-10-11T12:10:16.907Z,38.98
2022-10-11T12:12:49.434Z,42.85
2022-10-11T12:15:24.635Z,45.08
2022-10-11T12:17:57.318Z,46.62
2022-10-11T12:20:37.106Z,46.91
2022-10-11T12:23:20.090Z,42.85
2022-10-11T12:26:16.209Z,39.36
2022-10-11T12:29:07.606Z,41.97
2022-10-11T12:31:45.206Z,39.72
2022-10-11T12:34:34.324Z,41.38
2022-10-11T12:37:21.486Z,42.48
2022-10-11T12:40:12.634Z,43.38
2022-10-11T12:43:04.924Z,44.91
2022-10-11T12:45:37.355Z,45.14
2022-10-11T12:48:15.874Z,42.47
2022-10-11T12:50:48.166Z,43.35
2022-10-11T12:54:21.534Z,40.87
2022-10-11T12:56:54.545Z,42.49
2022-10-11T12:59:28.079Z,40.37
2022-10-11T13:02:00.893Z,41.49
2022-10-11T13:04:33.549Z,40.77
2022-10-11T13:07:13.157Z,40.69
2022-10-11T13:09:49.086Z,36.87
2022-10-11T13:12:23.316Z,34.82
2022-10-11T13:15:08.498Z,37.52
2022-10-11T13:17:43.726Z,35.37
2022-10-11T13:20:16.005Z,38.32
2022-10-11T13:22:50.067Z,41.44
2022-10-11T13:25:23.950Z,42.18
2022-10-11T13:27:57.677Z,43.91
2022-10-11T13:30:31.881Z,44.79
2022-10-11T13:33:08.537Z,46.56
2022-10-11T13:35:43.578Z,47.99
2022-10-11T13:38:23.857Z,48.20
2022-10-11T13:40:58.211Z,48.67
2022-10-11T13:43:31.265Z,49.07
2022-10-11T13:46:05.187Z,51.69
2022-10-11T13:48:41.155Z,51.43
2022-10-11T13:51:29.080Z,51.54
2022-10-11T13:54:06.151Z,51.23
2022-10-11T13:56:44.086Z,50.95
2022-10-11T13:59:21.646Z,52.25
2022-10-11T14:02:01.380Z,50.84
2022-10-11T14:04:40.851Z,51.60
2022-10-11T14:07:26.546Z,52.15
2022-10-11T14:09:58.907Z,51.92
2022-10-11T14:12:40.440Z,51.75
2022-10-11T14:15:27.195Z,52.08
2022-10-11T14:18:01.157Z,52.37
2022-10-11T14:20:36.294Z,51.36
2022-10-11T14:23:08.581Z,52.31
2022-10-11T14:25:41.160Z,51.81
2022-10-11T14:28:13.645Z,52.37
2022-10-11T14:30:46.011Z,53.28
2022-10-11T14:33:18.872Z,54.67
2022-10-11T14:35:51.159Z,54.35
2022-10-11T14:38:23.411Z,55.14
2022-10-11T14:40:55.693Z,54.95
2022-10-11T14:43:27.970Z,55.36
2022-10-11T14:46:00.251Z,55.13
2022-10-11T14:48:53.659Z,55.46
2022-10-11T14:51:28.000Z,55.44
2022-10-11T14:54:00.292Z,56.08
2022-10-11T14:56:32.703Z,56.15
2022-10-11T14:59:05.416Z,56.61
2022-10-11T15:01:37.794Z,56.37
2022-10-11T15:04:10.162Z,57.19
2022-10-11T15:06:42.451Z,57.50
2022-10-11T15:09:17.091Z,57.61
2022-10-11T15:11:50.627Z,56.98
2022-10-11T15:14:23.459Z,57.75
2022-10-11T15:16:56.296Z,57.22
2022-10-11T15:19:28.730Z,57.85
2022-10-11T15:22:02.277Z,57.88
2022-10-11T15:24:34.700Z,58.60
2022-10-11T15:27:07.048Z,58.14
2022-10-11T15:29:39.335Z,58.21
2022-10-11T15:32:11.731Z,58.85
2022-10-11T15:34:44.158Z,58.95
2022-10-11T15:37:16.517Z,59.40
2022-10-11T15:39:49.340Z,59.68
2022-10-11T15:42:21.718Z,59.82
2022-10-11T15:44:54.003Z,60.46
2022-10-11T15:47:26.313Z,60.26
2022-10-11T15:49:58.622Z,59.91
2022-10-11T15:52:31.007Z,60.18
2022-10-11T15:55:03.493Z,60.88
2022-10-11T15:57:35.858Z,61.29
2022-10-11T16:00:08.748Z,61.26
2022-10-11T16:02:41.193Z,60.79
2022-10-11T16:05:13.534Z,61.49
2022-10-11T16:07:45.926Z,61.82
2022-10-11T16:10:18.442Z,62.31
2022-10-11T16:12:50.835Z,62.31
2022-10-11T16:15:23.456Z,63.00
2022-10-11T16:17:55.833Z,63.31
2022-10-11T16:20:28.130Z,63.87
2022-10-11T16:23:00.433Z,64.22
2022-10-11T16:25:32.927Z,65.00
2022-10-11T16:28:05.785Z,65.55
2022-10-11T16:30:39.274Z,66.37
2022-10-11T16:33:11.562Z,67.40
2022-10-11T16:35:43.916Z,68.72
2022-10-11T16:38:16.235Z,68.58
2022-10-11T16:40:48.599Z,70.78
2022-10-11T16:43:20.913Z,70.07
2022-10-11T16:45:57.043Z,71.25
2022-10-11T16:48:29.371Z,71.90
2022-10-11T16:51:05.988Z,72.34
2022-10-11T16:53:38.357Z,74.55
2022-10-11T16:56:11.857Z,73.87
2022-10-11T16:58:44.211Z,74.19
2022-10-11T17:01:16.637Z,75.04
2022-10-11T17:03:49.658Z,75.27
2022-10-11T17:06:22.223Z,75.57
2022-10-11T17:08:54.498Z,76.29
2022-10-11T17:11:26.829Z,77.20
2022-10-11T17:13:59.821Z,77.77
2022-10-11T17:16:32.083Z,77.87
2022-10-11T17:19:04.528Z,78.57
2022-10-11T17:21:36.879Z,78.79
2022-10-11T17:24:09.247Z,78.71
2022-10-11T17:26:41.567Z,79.33
2022-10-11T17:29:15.007Z,81.10
2022-10-11T17:31:49.337Z,82.02
2022-10-11T17:34:22.323Z,81.38
2022-10-11T17:36:54.623Z,82.30
2022-10-11T17:39:26.922Z,82.10
2022-10-11T17:42:04.876Z,81.79
2022-10-11T17:44:37.297Z,82.21
2022-10-11T17:47:09.591Z,82.56
2022-10-11T17:49:41.911Z,82.75
2022-10-11T17:52:14.228Z,84.37
2022-10-11T17:54:46.531Z,87.42
2022-10-11T17:57:18.847Z,90.32
2022-10-11T17:59:51.334Z,89.75
2022-10-11T18:02:23.671Z,89.27
2022-10-11T18:04:56.974Z,94.88
2022-10-11T18:07:29.281Z,90.29
2022-10-11T18:10:01.648Z,93.57
2022-10-11T18:12:33.928Z,92.06
2022-10-11T18:15:06.570Z,91.76
2022-10-11T18:17:38.848Z,91.43
2022-10-11T18:20:11.441Z,92.20
2022-10-11T18:22:43.777Z,91.81
2022-10-11T18:25:16.295Z,92.71
2022-10-11T18:27:48.749Z,92.13
2022-10-11T18:30:21.140Z,91.16
2022-10-11T18:32:53.667Z,89.85
2022-10-11T18:35:26.017Z,91.12
2022-10-11T18:38:01.012Z,90.33
2022-10-11T18:40:36.956Z,91.61
2022-10-11T18:43:09.283Z,91.56
2022-10-11T18:45:44.051Z,92.25
2022-10-11T18:48:16.468Z,95.05
2022-10-11T18:50:49.562Z,96.45
2022-10-11T18:53:21.976Z,94.67
2022-10-11T18:55:59.477Z,94.45
2022-10-11T18:58:35.292Z,93.98
2022-10-11T19:01:09.114Z,94.44
2022-10-11T19:03:42.221Z,94.61
2022-10-11T19:06:18.558Z,96.20
2022-10-11T19:08:52.317Z,95.63
2022-10-11T19:11:25.431Z,97.82
2022-10-11T19:13:59.896Z,96.24
2022-10-11T19:16:33.954Z,96.08
2022-10-11T19:19:06.750Z,95.04
2022-10-11T19:21:39.417Z,100.00
2022-10-11T19:24:11.804Z,100.00
2022-10-11T19:26:44.566Z,98.68
2022-10-11T19:29:21.322Z,97.16
2022-10-11T19:31:54.813Z,97.70
2022-10-11T19:34:27.956Z,97.31
2022-10-11T19:37:04.146Z,97.16
2022-10-11T19:39:36.441Z,97.42
2022-10-11T19:42:09.252Z,96.98
2022-10-11T19:44:41.522Z,96.68
2022-10-11T19:47:16.092Z,97.05
2022-10-11T19:49:48.461Z,97.00
2022-10-11T19:52:20.851Z,100.00
2022-10-11T19:54:53.250Z,100.00
2022-10-11T19:57:25.515Z,100.00
2022-10-11T19:59:57.959Z,100.00
2022-10-11T20:02:30.678Z,100.00
2022-10-11T20:05:03.455Z,100.00
2022-10-11T20:07:35.702Z,100.00
2022-10-11T20:10:08.239Z,100.00
2022-10-11T20:12:45.726Z,100.00
2022-10-11T20:15:18.230Z,100.00
2022-10-11T20:17:51.638Z,100.00
2022-10-11T20:20:23.958Z,100.00
2022-10-11T20:22:56.417Z,100.00
2022-10-11T20:25:28.706Z,100.00
2022-10-11T20:28:01.166Z,100.00
2022-10-11T20:30:33.768Z,100.00
2022-10-11T20:33:06.070Z,100.00
2022-10-11T20:35:38.526Z,100.00
2022-10-11T20:38:10.823Z,100.00
2022-10-11T20:40:43.223Z,100.00
2022-10-11T20:43:15.834Z,100.00
2022-10-11T20:45:58.209Z,100.00
2022-10-11T20:48:31.305Z,100.00
2022-10-11T20:51:04.083Z,100.00
2022-10-11T20:53:37.292Z,100.00
2022-10-11T20:56:10.540Z,100.00
2022-10-11T20:58:43.250Z,100.00
2022-10-11T21:01:16.784Z,100.00
2022-10-11T21:03:49.348Z,100.00
2022-10-11T21:06:21.626Z,100.00
2022-10-11T21:08:54.402Z,100.00
2022-10-11T21:11:31.082Z,100.00
2022-10-11T21:14:04.879Z,100.00
2022-10-11T21:16:37.209Z,100.00
2022-10-11T21:19:12.118Z,100.00
2022-10-11T21:21:46.425Z,100.00
2022-10-11T21:24:21.372Z,100.00
2022-10-11T21:26:58.152Z,100.00
2022-10-11T21:29:32.633Z,100.00
2022-10-11T21:32:04.865Z,100.00
2022-10-11T21:34:37.300Z,100.00
2022-10-11T21:37:09.589Z,100.00
2022-10-11T21:39:41.858Z,100.00
2022-10-11T21:42:14.275Z,100.00
2022-10-11T21:44:46.579Z,100.00
2022-10-11T21:47:18.893Z,100.00
2022-10-11T21:49:51.193Z,100.00
2022-10-11T21:52:24.873Z,100.00
2022-10-11T21:54:57.332Z,100.00
2022-10-11T21:57:29.721Z,100.00
2022-10-11T22:00:02.278Z,100.00
2022-10-11T22:02:34.830Z,100.00
2022-10-11T22:05:07.418Z,100.00
2022-10-11T22:07:39.730Z,100.00
2022-10-11T22:10:12.021Z,100.00
2022-10-11T22:12:44.387Z,100.00
2022-10-11T22:15:16.734Z,100.00
2022-10-11T22:17:49.030Z,100.00
2022-10-11T22:20:21.306Z,100.00
2022-10-11T22:22:53.600Z,100.00
2022-10-11T22:25:25.925Z,100.00
2022-10-11T22:27:58.206Z,100.00
2022-10-11T22:30:30.561Z,100.00
2022-10-11T22:33:02.862Z,100.00
2022-10-11T22:35:37.374Z,100.00
2022-10-11T22:38:10.138Z,100.00
2022-10-11T22:40:43.528Z,100.00
2022-10-11T22:43:16.346Z,100.00
2022-10-11T22:45:48.685Z,100.00
2022-10-11T22:48:21.065Z,100.00
2022-10-11T22:50:53.836Z,100.00
2022-10-11T22:53:26.144Z,100.00
2022-10-11T22:55:59.565Z,100.00
2022-10-11T22:58:31.949Z,100.00
2022-10-11T23:01:08.373Z,100.00
2022-10-11T23:03:40.825Z,100.00
2022-10-11T23:06:13.157Z,100.00
2022-10-11T23:08:45.506Z,100.00
2022-10-11T23:11:18.186Z,100.00
2022-10-11T23:13:50.505Z,100.00
2022-10-11T23:16:22.809Z,100.00
2022-10-11T23:18:55.294Z,100.00
2022-10-11T23:21:27.668Z,100.00
2022-10-11T23:23:59.932Z,100.00
2022-10-11T23:26:32.260Z,100.00
2022-10-11T23:29:04.562Z,100.00
2022-10-11T23:31:36.845Z,100.00
2022-10-11T23:34:09.096Z,100.00
2022-10-11T23:36:41.344Z,100.00
2022-10-11T23:39:15.926Z,100.00
2022-10-11T23:41:48.296Z,100.00
2022-10-11T23:44:20.764Z,100.00
2022-10-11T23:46:53.043Z,100.00
2022-10-11T23:49:27.114Z,100.00
2022-10-11T23:51:59.383Z,100.00
2022-10-11T23:54:31.653Z,100.00
2022-10-11T23:57:03.995Z,100.00
2022-10-11T23:59:36.366Z,100.00
